Forside
METAR-TAF:

METAR-TAF

Lufthavne :

Koror, Babeldaob, Palau

Breddekreds: 07-22N, længdekreds: 134-32E, højde: 54 m

Aktuelle vejr

Denne rapport blev lavet for 32 minutter siden, kl. 10:50 UTC
Vind stille
Temperatur 26°C
Fugtighed 89%
Tryk 1009 hPa
Sigt: 24.1 km
Spredte skyer i en højde af 1600 ft, Cumulonimbus.
Brudte skyer i en højde af 12000 ft
Brudte skyer i en højde af 30000 ft

METAR: PTRO 171050Z 00000KT 15SM SCT016CB BKN120 BKN300 26/24 A2981 RMK CB ALQDS

Tid: 20:22 (11:22 UTC)

Vejrudsigter

Denne rapport blev lavet for 5 timer og 50 minutter siden, kl. 05:32 UTC
Foreløbig gælder fra 17 på 06 UTC til 18 på 06 UTC
Vind 8 kt fra nordvest
Sigt: 10 km
Spredte skyer i en højde af 1700 ft
Brudte skyer i en højde af 12000 ft
byger i nærheden

TAF: PTRO 170532Z 1706/1806 32008KT P6SM VCSH SCT017 BKN120

Vejrobservationer og prognoser fra mere end 4000 lufthavne (METAR og TAF).

De gule og røde prikker repræsenterer de meteorologiske stationer.

Flyt musen over at se navnet på stationen.

Så klik over at se vejr observationer og prognoser.

At skifte det kort: Klik på de grønne knapper med et sort kors for at zoome ind; på den grønne knap med en bindestreg for at zoome ud; eller på de grønne pile for tilstødende kort.


METAR-TAF: